Time;durP1;ratioP1;P1;durP2;ratioP2;P2;SDS_P1;SDS_P2;PMS_P1;PMS_P2;Temp;Humidity;BMP_temperature;BMP_pressure;BME280_temperature;BME280_humidity;BME280_pressure;Samples;Min_cycle;Max_cycle;Signal;HPM_P1;HPM_P2
2023/05/07 00:00:15;;;;;;;5.63;2.20;;;;;;;18.64;61.19;100199.88;5051908;28;20767;-74
2023/05/07 00:02:40;;;;;;;3.08;2.28;;;;;;;18.65;61.06;100201.50;5085176;28;20455;-74
2023/05/07 00:05:07;;;;;;;2.72;2.53;;;;;;;18.64;61.13;100196.31;5084220;28;20390;-74
2023/05/07 00:07:32;;;;;;;2.45;2.30;;;;;;;18.62;61.13;100193.06;5084474;28;20821;-74
2023/05/07 00:09:57;;;;;;;2.67;2.00;;;;;;;18.60;61.39;100198.88;5084881;28;20489;-73
2023/05/07 00:12:22;;;;;;;4.90;2.40;;;;;;;18.58;61.45;100187.38;5051704;28;20412;-74
2023/05/07 00:14:48;;;;;;;5.27;2.47;;;;;;;18.56;61.44;100197.84;5080598;28;20396;-74
2023/05/07 00:17:13;;;;;;;8.70;2.50;;;;;;;18.55;61.53;100190.72;5082921;28;20414;-74
2023/05/07 00:19:38;;;;;;;3.27;2.07;;;;;;;18.56;61.42;100183.31;5068429;28;20413;-74
2023/05/07 00:22:03;;;;;;;3.07;2.00;;;;;;;18.56;61.66;100181.38;5084558;28;20410;-74
2023/05/07 00:24:29;;;;;;;4.37;2.47;;;;;;;18.54;61.55;100178.13;5068239;28;20386;-74
2023/05/07 00:26:54;;;;;;;2.00;1.90;;;;;;;18.55;61.53;100192.66;5074999;28;20423;-74
2023/05/07 00:29:19;;;;;;;2.87;2.10;;;;;;;18.53;61.53;100189.41;5085398;28;20948;-74
2023/05/07 00:31:45;;;;;;;4.47;2.00;;;;;;;18.52;61.58;100191.34;5054754;28;20416;-74
2023/05/07 00:34:10;;;;;;;3.93;2.00;;;;;;;18.50;61.30;100185.34;5077386;28;20394;-74
2023/05/07 00:36:35;;;;;;;2.30;2.13;;;;;;;18.50;61.36;100179.88;5083700;28;20391;-74
2023/05/07 00:39:03;;;;;;;3.60;2.37;;;;;;;18.49;61.27;100174.63;5066199;28;20410;-74
2023/05/07 00:41:28;;;;;;;1.85;1.75;;;;;;;18.50;61.02;100173.56;5080978;28;20454;-74
2023/05/07 00:43:53;;;;;;;4.40;2.17;;;;;;;18.51;60.78;100172.41;5080681;28;20896;-74
2023/05/07 00:46:22;;;;;;;3.08;1.90;;;;;;;18.48;60.77;100173.81;5084256;28;20454;-74
2023/05/07 00:48:50;;;;;;;2.45;2.17;;;;;;;18.47;60.71;100179.63;5083864;28;20544;-74
2023/05/07 00:51:15;;;;;;;2.35;2.15;;;;;;;18.44;60.72;100164.56;5082382;28;20435;-74
2023/05/07 00:53:41;;;;;;;2.25;2.05;;;;;;;18.42;60.80;100165.97;5078453;28;20419;-74
2023/05/07 00:56:07;;;;;;;4.73;2.10;;;;;;;18.42;60.82;100172.28;5088058;28;20386;-74
2023/05/07 00:58:33;;;;;;;1.90;1.90;;;;;;;18.41;60.47;100178.88;5086327;28;20387;-74
2023/05/07 01:00:59;;;;;;;3.42;2.45;;;;;;;18.38;60.70;100184.16;5063162;28;20462;-74
2023/05/07 01:03:25;;;;;;;3.28;2.17;;;;;;;18.35;60.94;100177.34;5069717;28;20475;-74
2023/05/07 01:05:52;;;;;;;2.13;1.90;;;;;;;18.33;60.98;100173.28;5086168;28;20443;-74
2023/05/07 01:08:18;;;;;;;2.53;2.13;;;;;;;18.33;60.91;100173.28;5086128;28;20438;-74
2023/05/07 01:10:44;;;;;;;2.35;2.15;;;;;;;18.31;60.89;100170.84;5089503;28;20868;-74
2023/05/07 01:13:11;;;;;;;3.10;2.22;;;;;;;18.31;60.83;100170.06;5084079;28;20428;-74
2023/05/07 01:15:36;;;;;;;6.20;2.25;;;;;;;18.29;60.89;100167.59;5085821;28;20394;-74
2023/05/07 01:18:02;;;;;;;2.40;2.20;;;;;;;18.27;60.96;100169.84;5092918;28;20384;-74
2023/05/07 01:20:28;;;;;;;3.13;2.33;;;;;;;18.25;60.98;100165.75;5069881;28;20780;-74
2023/05/07 01:22:54;;;;;;;2.35;2.15;;;;;;;18.22;61.13;100166.38;5089664;28;20438;-74
2023/05/07 01:25:20;;;;;;;2.10;1.90;;;;;;;18.22;61.08;100169.91;5071493;28;20382;-74
2023/05/07 01:27:45;;;;;;;2.80;2.10;;;;;;;18.22;61.05;100174.59;5086424;28;20403;-74
2023/05/07 01:30:11;;;;;;;2.73;2.30;;;;;;;18.19;61.07;100167.78;5076755;28;20411;-74
2023/05/07 01:32:42;;;;;;;2.28;2.13;;;;;;;18.20;60.92;100171.34;5089573;28;20481;-74
2023/05/07 01:35:12;;;;;;;2.15;2.05;;;;;;;18.18;61.13;100171.63;5089264;28;20390;-74
2023/05/07 01:37:39;;;;;;;3.85;2.17;;;;;;;18.13;61.19;100167.06;5085892;28;20388;-74
2023/05/07 01:40:07;;;;;;;2.43;2.23;;;;;;;18.14;61.46;100171.41;5081817;28;20925;-74
2023/05/07 01:42:32;;;;;;;2.20;2.10;;;;;;;18.08;61.58;100158.91;5089248;28;20414;-74
2023/05/07 01:44:58;;;;;;;2.38;2.10;;;;;;;18.05;61.84;100164.19;5089391;28;20429;-74
2023/05/07 01:47:24;;;;;;;2.73;2.17;;;;;;;18.05;61.78;100170.50;5086256;28;20387;-74
2023/05/07 01:49:50;;;;;;;2.13;2.03;;;;;;;18.04;61.73;100171.63;5084986;28;20411;-74
2023/05/07 01:52:15;;;;;;;2.03;1.93;;;;;;;18.05;61.89;100173.22;5085020;28;20428;-74
2023/05/07 01:54:40;;;;;;;2.03;1.90;;;;;;;18.04;62.05;100171.63;5088883;28;20786;-74
2023/05/07 01:57:06;;;;;;;2.33;2.10;;;;;;;18.03;61.90;100169.19;5078841;28;20410;-75
2023/05/07 01:59:31;;;;;;;2.20;1.97;;;;;;;18.02;62.30;100173.03;5084830;28;20416;-74
2023/05/07 02:01:56;;;;;;;2.30;2.10;;;;;;;17.96;62.45;100166.81;5070520;28;20405;-74
2023/05/07 02:04:21;;;;;;;2.97;2.30;;;;;;;17.94;62.42;100168.25;5088820;28;20446;-74
2023/05/07 02:06:47;;;;;;;3.80;2.20;;;;;;;17.92;62.58;100162.22;5070024;28;20903;-74
2023/05/07 02:09:14;;;;;;;2.47;2.27;;;;;;;17.91;62.76;100163.38;5072608;28;20441;-74
2023/05/07 02:11:40;;;;;;;2.47;1.90;;;;;;;17.89;62.79;100166.38;5087732;28;20389;-74
2023/05/07 02:14:05;;;;;;;2.80;2.20;;;;;;;17.87;62.84;100168.63;5088453;28;20744;-74
2023/05/07 02:16:30;;;;;;;3.50;2.50;;;;;;;17.85;62.91;100178.28;5088482;28;20435;-74
2023/05/07 02:18:56;;;;;;;2.27;2.10;;;;;;;17.80;63.13;100181.09;5085125;28;20408;-74
2023/05/07 02:21:21;;;;;;;2.58;2.03;;;;;;;17.75;63.34;100179.22;5067878;28;20735;-74
2023/05/07 02:23:47;;;;;;;6.40;2.53;;;;;;;17.74;63.34;100185.03;5088460;28;20435;-74
2023/05/07 02:26:12;;;;;;;3.47;2.20;;;;;;;17.71;63.45;100183.69;5088519;28;20469;-74
2023/05/07 02:28:37;;;;;;;2.75;2.42;;;;;;;17.66;63.61;100181.03;5084418;28;20456;-74
2023/05/07 02:31:03;;;;;;;3.20;2.60;;;;;;;17.65;63.76;100176.66;5063285;28;20949;-74
2023/05/07 02:33:29;;;;;;;2.75;2.20;;;;;;;17.63;64.01;100178.88;5077661;28;20761;-74
2023/05/07 02:35:54;;;;;;;4.37;2.77;;;;;;;17.62;64.06;100182.72;5070233;28;20386;-74
2023/05/07 02:38:19;;;;;;;2.30;2.10;;;;;;;17.58;64.15;100177.03;5068787;28;20523;-74
2023/05/07 02:40:44;;;;;;;2.50;2.40;;;;;;;17.53;64.38;100174.34;5074156;28;20490;-74
2023/05/07 02:43:10;;;;;;;2.30;2.20;;;;;;;17.50;64.42;100174.94;5082924;28;20411;-74
2023/05/07 02:45:37;;;;;;;2.40;2.30;;;;;;;17.50;64.32;100177.69;5088030;28;20390;-74
2023/05/07 02:48:02;;;;;;;3.00;2.40;;;;;;;17.50;64.38;100168.66;5087880;28;20386;-74
2023/05/07 02:50:28;;;;;;;2.67;2.27;;;;;;;17.52;64.19;100166.41;5068649;28;20544;-74
2023/05/07 02:52:53;;;;;;;2.97;2.40;;;;;;;17.49;64.31;100169.75;5086772;28;20413;-74
2023/05/07 02:55:18;;;;;;;3.78;1.90;;;;;;;17.46;64.45;100159.38;5087729;28;20390;-74
2023/05/07 02:57:44;;;;;;;2.23;2.10;;;;;;;17.44;64.61;100154.22;5059931;28;20387;-74
2023/05/07 03:00:14;;;;;;;4.00;2.93;;;;;;;17.42;64.66;100153.69;5072162;28;20759;-74
2023/05/07 03:02:39;;;;;;;2.60;2.00;;;;;;;17.37;65.00;100142.81;5067959;28;20910;-74
2023/05/07 03:05:05;;;;;;;2.47;2.30;;;;;;;17.31;65.16;100146.75;5052856;28;20389;-74
2023/05/07 03:07:30;;;;;;;4.30;2.23;;;;;;;17.30;65.11;100147.03;5087453;28;20436;-74
2023/05/07 03:09:56;;;;;;;4.87;2.30;;;;;;;17.34;65.04;100150.81;5078695;28;20419;-74
2023/05/07 03:12:21;;;;;;;2.87;2.40;;;;;;;17.34;64.90;100159.84;5084745;28;20387;-74
2023/05/07 03:14:46;;;;;;;2.50;2.20;;;;;;;17.36;64.84;100154.88;5086743;28;20483;-74
2023/05/07 03:17:11;;;;;;;2.63;2.33;;;;;;;17.38;64.71;100151.84;5087108;28;20741;-74
2023/05/07 03:19:37;;;;;;;2.43;2.27;;;;;;;17.35;64.88;100150.53;5079928;28;20421;-74
2023/05/07 03:22:02;;;;;;;3.20;2.90;;;;;;;17.29;65.03;100150.91;5083480;28;20403;-74
2023/05/07 03:24:27;;;;;;;2.13;1.93;;;;;;;17.25;65.33;100147.13;5087059;28;20469;-74
2023/05/07 03:26:52;;;;;;;3.20;2.50;;;;;;;17.24;65.11;100151.78;5087428;28;20390;-74
2023/05/07 03:29:18;;;;;;;2.80;2.23;;;;;;;17.24;65.11;100153.69;5076142;28;20410;-74
2023/05/07 03:31:43;;;;;;;2.77;2.57;;;;;;;17.13;65.44;100148.38;5083449;28;20441;-74
2023/05/07 03:34:08;;;;;;;3.63;2.63;;;;;;;17.12;65.60;100154.94;5079549;28;20391;-74
2023/05/07 03:36:34;;;;;;;2.65;2.45;;;;;;;17.09;65.74;100154.75;5068974;28;20390;-74
2023/05/07 03:38:59;;;;;;;2.63;2.23;;;;;;;17.04;65.90;100158.34;5087275;28;20398;-74
2023/05/07 03:41:25;;;;;;;2.33;2.23;;;;;;;17.03;65.88;100151.25;5079522;28;20880;-74
2023/05/07 03:43:50;;;;;;;2.60;2.40;;;;;;;17.02;65.90;100155.13;5084418;28;20391;-74
2023/05/07 03:46:16;;;;;;;2.50;2.17;;;;;;;17.02;65.66;100160.59;5087079;28;20488;-74
2023/05/07 03:48:41;;;;;;;2.50;2.30;;;;;;;17.00;65.65;100164.72;5086959;28;20393;-74
2023/05/07 03:51:06;;;;;;;3.87;2.50;;;;;;;16.99;65.92;100163.88;5073620;28;20403;-74
2023/05/07 03:53:31;;;;;;;4.80;2.00;;;;;;;16.94;65.95;100154.94;5082975;28;20388;-74
2023/05/07 03:55:57;;;;;;;3.65;2.45;;;;;;;16.92;66.14;100160.72;5064245;28;20761;-74
2023/05/07 03:58:22;;;;;;;3.33;2.60;;;;;;;17.00;65.87;100162.78;5086992;28;20417;-74
2023/05/07 04:00:48;;;;;;;2.67;2.33;;;;;;;16.91;66.16;100172.78;5086045;28;20758;-74
2023/05/07 04:03:13;;;;;;;2.40;2.30;;;;;;;16.88;66.27;100175.28;5083024;28;20396;-74
2023/05/07 04:05:39;;;;;;;2.93;2.73;;;;;;;16.87;66.29;100177.19;5085585;28;20754;-74
2023/05/07 04:08:05;;;;;;;2.63;2.07;;;;;;;16.84;66.62;100179.69;5061175;28;20401;-74
2023/05/07 04:10:30;;;;;;;2.47;2.38;;;;;;;16.87;66.43;100176.38;5049616;28;20424;-74
2023/05/07 04:12:56;;;;;;;2.50;2.40;;;;;;;16.88;66.44;100181.56;5070331;28;20404;-74
2023/05/07 04:15:22;;;;;;;4.60;2.40;;;;;;;16.82;66.77;100180.00;5084387;28;20829;-74
2023/05/07 04:17:48;;;;;;;3.03;2.60;;;;;;;16.84;66.63;100175.03;5086587;28;20905;-74
2023/05/07 04:20:15;;;;;;;4.90;2.57;;;;;;;16.86;66.33;100178.28;5071426;28;20480;-74
2023/05/07 04:22:41;;;;;;;2.70;2.33;;;;;;;16.82;66.66;100174.53;5080743;28;20417;-74
2023/05/07 04:25:08;;;;;;;2.53;2.33;;;;;;;16.83;66.83;100169.84;5092982;28;20399;-74
2023/05/07 04:27:34;;;;;;;3.27;2.67;;;;;;;16.82;66.59;100174.53;5085908;28;20489;-74
2023/05/07 04:30:00;;;;;;;2.37;2.20;;;;;;;16.77;66.63;100169.09;5086857;28;20955;-74
2023/05/07 04:32:26;;;;;;;2.95;2.72;;;;;;;16.80;66.82;100173.19;5088811;28;20450;-74
2023/05/07 04:34:51;;;;;;;2.80;2.60;;;;;;;16.79;66.96;100174.31;5086947;28;20419;-74
2023/05/07 04:37:16;;;;;;;2.97;2.37;;;;;;;16.81;66.98;100183.03;5068930;28;20424;-74
2023/05/07 04:39:42;;;;;;;2.70;2.50;;;;;;;16.82;67.07;100179.19;5076077;28;20420;-74
2023/05/07 04:42:08;;;;;;;2.50;2.30;;;;;;;16.85;66.75;100184.91;5089916;28;20853;-74
2023/05/07 04:44:34;;;;;;;2.45;2.10;;;;;;;16.86;66.65;100186.50;5054389;28;20415;-74
2023/05/07 04:46:59;;;;;;;3.08;2.78;;;;;;;16.84;66.81;100191.47;5060926;28;20382;-74
2023/05/07 04:49:25;;;;;;;2.43;2.33;;;;;;;16.85;66.81;100193.09;5084790;28;20379;-74
2023/05/07 04:51:50;;;;;;;3.23;2.60;;;;;;;16.88;66.66;100189.78;5080182;28;20958;-74
2023/05/07 04:54:15;;;;;;;4.70;2.53;;;;;;;16.82;66.97;100201.91;5086340;28;20379;-74
2023/05/07 04:56:40;;;;;;;5.87;2.50;;;;;;;16.87;66.79;100192.78;5088187;28;20391;-74
2023/05/07 04:59:06;;;;;;;2.50;2.30;;;;;;;16.89;66.65;100190.59;5087506;28;20880;-74
2023/05/07 05:01:31;;;;;;;3.07;2.30;;;;;;;16.87;66.64;100199.09;5085550;28;20872;-74
2023/05/07 05:03:56;;;;;;;2.20;2.10;;;;;;;16.99;66.49;100209.63;5074331;28;20395;-74
2023/05/07 05:06:22;;;;;;;2.30;2.20;;;;;;;16.96;66.40;100202.81;5057403;28;20388;-74
2023/05/07 05:08:47;;;;;;;2.30;2.20;;;;;;;16.98;66.30;100211.56;5085348;28;20411;-74
2023/05/07 05:11:12;;;;;;;2.60;2.45;;;;;;;16.99;66.36;100206.91;5075778;28;22967;-74
2023/05/07 05:13:37;;;;;;;2.33;2.20;;;;;;;16.93;66.79;100216.25;5071323;28;20400;-74
2023/05/07 05:16:03;;;;;;;2.80;2.60;;;;;;;16.97;66.73;100212.66;5074242;28;20443;-74
2023/05/07 05:18:28;;;;;;;2.58;2.38;;;;;;;17.02;66.69;100200.84;5082533;28;20394;-74
2023/05/07 05:20:53;;;;;;;2.60;2.10;;;;;;;17.06;66.80;100212.81;5089122;28;20864;-74
2023/05/07 05:23:19;;;;;;;2.73;2.30;;;;;;;16.98;67.17;100210.75;5085433;28;20421;-74
2023/05/07 05:25:45;;;;;;;3.00;2.70;;;;;;;16.99;67.11;100218.63;5084321;28;20487;-74
2023/05/07 05:28:10;;;;;;;2.80;2.60;;;;;;;17.10;66.95;100216.59;5080949;28;20815;-74
2023/05/07 05:30:35;;;;;;;2.37;2.27;;;;;;;17.21;66.30;100217.28;5089471;28;20378;-74
2023/05/07 05:33:01;;;;;;;2.53;2.33;;;;;;;17.26;65.98;100222.69;5089394;28;20752;-74
2023/05/07 05:35:26;;;;;;;2.20;2.10;;;;;;;17.27;66.07;100221.56;5069053;28;20791;-74
2023/05/07 05:37:51;;;;;;;2.15;2.03;;;;;;;17.33;65.95;100231.34;5067513;28;20499;-74
2023/05/07 05:40:17;;;;;;;2.50;2.37;;;;;;;17.42;65.65;100237.81;5089304;28;20413;-74
2023/05/07 05:42:42;;;;;;;2.67;2.47;;;;;;;17.46;65.66;100228.69;5084773;28;20881;-74
2023/05/07 05:45:08;;;;;;;2.10;2.00;;;;;;;17.40;65.82;100227.13;5085419;28;20813;-74
2023/05/07 05:47:33;;;;;;;2.90;2.30;;;;;;;17.44;65.85;100232.84;5085318;28;20387;-74
2023/05/07 05:49:59;;;;;;;3.00;2.70;;;;;;;17.47;65.56;100230.34;5084556;28;20849;-74
2023/05/07 05:52:24;;;;;;;3.23;2.17;;;;;;;17.50;65.58;100227.00;5077013;28;20409;-74
2023/05/07 05:54:50;;;;;;;3.20;2.35;;;;;;;17.40;66.00;100229.88;5050799;28;20407;-74
2023/05/07 05:57:15;;;;;;;2.70;2.50;;;;;;;17.48;65.82;100239.38;5055813;28;20454;-74
2023/05/07 05:59:40;;;;;;;3.70;2.03;;;;;;;17.55;65.63;100235.16;5071792;28;21048;-74
2023/05/07 06:02:06;;;;;;;2.45;2.35;;;;;;;17.59;65.51;100219.75;5087375;28;20472;-74
2023/05/07 06:04:31;;;;;;;2.60;2.40;;;;;;;17.54;65.63;100217.09;5087853;28;20752;-75
2023/05/07 06:06:57;;;;;;;3.40;2.27;;;;;;;17.56;65.70;100208.59;5076570;28;20388;-74
2023/05/07 06:09:22;;;;;;;2.10;2.00;;;;;;;17.59;65.60;100208.81;5084715;28;20487;-74
2023/05/07 06:11:47;;;;;;;2.43;2.33;;;;;;;17.73;65.26;100210.78;5085640;28;20730;-74
2023/05/07 06:14:12;;;;;;;3.90;2.37;;;;;;;17.84;64.60;100210.34;5081827;28;20401;-74
2023/05/07 06:16:38;;;;;;;2.60;2.33;;;;;;;17.87;64.60;100212.50;5086212;28;20400;-74
2023/05/07 06:19:03;;;;;;;3.13;2.33;;;;;;;17.87;64.86;100211.66;5082915;28;20407;-74
2023/05/07 06:21:28;;;;;;;3.60;2.30;;;;;;;17.90;64.37;100219.28;5073732;28;20413;-74
2023/05/07 06:23:54;;;;;;;3.50;2.05;;;;;;;17.94;64.63;100223.91;5074088;28;20452;-74
2023/05/07 06:26:20;;;;;;;3.47;2.17;;;;;;;18.01;64.48;100240.75;5079622;28;20751;-74
2023/05/07 06:28:45;;;;;;;2.63;2.43;;;;;;;18.12;64.31;100250.44;5078597;28;20750;-74
2023/05/07 06:31:22;;;;;;;5.60;2.77;;;;;;;18.19;63.84;100260.22;5087226;28;20744;-74
2023/05/07 06:33:49;;;;;;;2.88;2.30;;;;;;;18.23;63.87;100251.09;5079226;28;20483;-74
2023/05/07 06:36:14;;;;;;;2.58;2.25;;;;;;;18.24;64.10;100251.91;5078318;28;20398;-75
2023/05/07 06:38:39;;;;;;;5.63;2.87;;;;;;;18.26;64.30;100256.00;5073430;28;20412;-74
2023/05/07 06:41:08;;;;;;;3.33;2.50;;;;;;;18.23;64.72;100248.34;5056368;28;20412;-74
2023/05/07 06:43:33;;;;;;;2.53;2.40;;;;;;;18.24;64.89;100243.69;5081620;28;20413;-74
2023/05/07 06:45:58;;;;;;;2.70;2.37;;;;;;;18.24;65.07;100249.19;5078400;28;20482;-74
2023/05/07 06:48:24;;;;;;;2.73;2.40;;;;;;;18.21;65.39;100253.31;5073973;28;20415;-74
2023/05/07 06:50:50;;;;;;;2.00;1.90;;;;;;;18.19;65.35;100241.84;5074429;28;20976;-74
2023/05/07 06:53:15;;;;;;;3.03;2.73;;;;;;;18.29;64.92;100232.63;5077205;28;20547;-74
2023/05/07 06:55:41;;;;;;;2.40;2.20;;;;;;;18.40;64.53;100243.13;5070145;28;20412;-74
2023/05/07 06:58:06;;;;;;;4.35;2.38;;;;;;;18.47;63.93;100234.50;5073738;28;20433;-74
2023/05/07 07:00:32;;;;;;;3.90;2.50;;;;;;;18.52;63.55;100239.91;5069216;28;20552;-74
2023/05/07 07:02:57;;;;;;;2.57;2.47;;;;;;;18.55;63.55;100234.63;5071302;28;20819;-74
2023/05/07 07:05:22;;;;;;;2.50;2.30;;;;;;;18.52;63.45;100240.72;5077603;28;20399;-74
2023/05/07 07:07:52;;;;;;;2.67;2.47;;;;;;;18.53;63.37;100241.56;5050089;28;21034;-73
2023/05/07 07:10:19;;;;;;;3.53;2.85;;;;;;;18.60;63.00;100258.44;5081649;28;20410;-71
2023/05/07 07:12:44;;;;;;;3.40;2.90;;;;;;;18.63;63.09;100260.56;5083577;28;20547;-72
2023/05/07 07:15:10;;;;;;;3.23;2.87;;;;;;;18.70;62.79;100282.97;5075927;28;20502;-74
2023/05/07 07:17:35;;;;;;;3.33;2.70;;;;;;;18.75;62.57;100296.56;5071541;28;20996;-74
2023/05/07 07:20:00;;;;;;;2.60;2.40;;;;;;;18.85;62.60;100296.38;5070744;28;20990;-75
2023/05/07 07:22:25;;;;;;;2.53;2.33;;;;;;;18.90;62.08;100285.28;5070094;28;20415;-74
2023/05/07 07:24:51;;;;;;;2.20;2.10;;;;;;;18.91;62.85;100275.13;5065266;28;20400;-74
2023/05/07 07:27:16;;;;;;;2.73;2.53;;;;;;;18.87;62.88;100261.19;5065422;28;20407;-74
2023/05/07 07:29:41;;;;;;;2.83;2.30;;;;;;;18.88;63.06;100268.31;5064889;28;20433;-74
2023/05/07 07:32:06;;;;;;;4.87;1.90;;;;;;;18.90;63.30;100277.06;5067877;28;20511;-74
2023/05/07 07:34:32;;;;;;;2.83;2.55;;;;;;;18.90;63.36;100298.22;5045275;28;20982;-74
2023/05/07 07:36:57;;;;;;;2.77;2.20;;;;;;;18.92;63.18;100305.03;5065510;28;20405;-74
2023/05/07 07:39:22;;;;;;;2.23;2.13;;;;;;;18.92;63.54;100287.75;5065208;28;20411;-74
2023/05/07 07:41:47;;;;;;;2.37;2.23;;;;;;;18.89;63.73;100275.44;5063159;28;20763;-75
2023/05/07 07:44:13;;;;;;;2.80;2.60;;;;;;;18.79;63.93;100285.81;5062750;28;20457;-74
2023/05/07 07:46:38;;;;;;;2.95;2.65;;;;;;;18.79;63.75;100283.88;5067613;28;20395;-74
2023/05/07 07:49:03;;;;;;;2.90;2.70;;;;;;;18.80;63.59;100284.69;5064954;28;20923;-74
2023/05/07 07:51:28;;;;;;;3.10;2.80;;;;;;;18.75;63.79;100291.09;5063045;28;21164;-74
2023/05/07 07:53:54;;;;;;;3.10;2.63;;;;;;;18.76;64.23;100295.47;5048441;28;20419;-74
2023/05/07 07:56:20;;;;;;;2.53;2.33;;;;;;;18.82;64.17;100285.19;5068287;28;20407;-74
2023/05/07 07:58:45;;;;;;;2.90;2.70;;;;;;;18.84;64.13;100292.00;5053552;28;20416;-74
2023/05/07 08:01:12;;;;;;;2.37;2.27;;;;;;;18.91;63.39;100291.59;5076227;28;20918;-74
2023/05/07 08:03:38;;;;;;;4.50;2.50;;;;;;;18.94;63.19;100302.78;5070868;28;20506;-74
2023/05/07 08:06:03;;;;;;;2.60;2.50;;;;;;;19.02;62.97;100293.03;5068302;28;20391;-74
2023/05/07 08:08:28;;;;;;;2.30;2.10;;;;;;;19.06;62.98;100291.31;5081884;28;20407;-74
2023/05/07 08:10:55;;;;;;;3.38;2.65;;;;;;;19.10;63.24;100290.38;5073235;28;21291;-74
2023/05/07 08:13:21;;;;;;;2.70;2.50;;;;;;;19.13;63.53;100302.72;5084268;28;20479;-74
2023/05/07 08:15:47;;;;;;;2.22;2.13;;;;;;;19.19;63.67;100307.00;5081372;28;20384;-74
2023/05/07 08:18:12;;;;;;;2.83;2.40;;;;;;;19.20;63.96;100305.84;5073876;28;20937;-74
2023/05/07 08:20:39;;;;;;;3.17;2.50;;;;;;;19.14;63.73;100301.59;5082537;28;20418;-74
2023/05/07 08:23:06;;;;;;;1.95;1.85;;;;;;;19.12;63.98;100306.56;5072348;28;20392;-74
2023/05/07 08:25:33;;;;;;;3.90;2.08;;;;;;;19.15;64.11;100304.03;5078635;28;20946;-74
2023/05/07 08:27:58;;;;;;;3.00;2.00;;;;;;;19.20;63.49;100303.09;5086434;28;20441;-74
2023/05/07 08:30:23;;;;;;;4.63;2.27;;;;;;;19.23;63.44;100302.53;5078828;28;20491;-74
2023/05/07 08:32:49;;;;;;;2.20;2.07;;;;;;;19.21;63.02;100302.00;5081406;28;20418;-75
2023/05/07 08:35:14;;;;;;;2.40;2.20;;;;;;;19.29;63.01;100303.22;5070760;28;20819;-74
2023/05/07 08:37:39;;;;;;;3.23;2.00;;;;;;;19.46;63.13;100303.44;5079004;28;20403;-74
2023/05/07 08:40:05;;;;;;;4.07;2.10;;;;;;;19.70;62.97;100301.25;5075666;28;20422;-74
2023/05/07 08:42:32;;;;;;;4.25;2.03;;;;;;;19.91;62.27;100298.84;5090568;28;20408;-75
2023/05/07 08:44:59;;;;;;;2.40;2.30;;;;;;;20.15;60.83;100302.94;5084966;28;20397;-74
2023/05/07 08:47:32;;;;;;;2.75;2.25;;;;;;;20.33;60.01;100303.91;5086302;28;20825;-74
2023/05/07 08:49:58;;;;;;;3.05;2.33;;;;;;;20.45;59.69;100298.66;5079332;28;20388;-75
2023/05/07 08:52:23;;;;;;;3.28;2.22;;;;;;;20.65;59.29;100289.84;5071790;28;20414;-74
2023/05/07 08:54:48;;;;;;;2.90;2.53;;;;;;;20.87;58.33;100301.97;5081797;28;20397;-74
2023/05/07 08:57:13;;;;;;;2.90;2.10;;;;;;;21.16;57.69;100289.31;5083451;28;20787;-75
2023/05/07 08:59:40;;;;;;;2.10;1.97;;;;;;;21.40;56.87;100299.94;5085020;28;20440;-75
2023/05/07 09:02:09;;;;;;;9.20;2.73;;;;;;;21.60;56.40;100293.78;5067293;28;20487;-75
2023/05/07 09:04:34;;;;;;;2.78;2.10;;;;;;;21.75;56.35;100298.03;5073357;28;20476;-74
2023/05/07 09:07:05;;;;;;;2.63;2.43;;;;;;;21.92;56.13;100300.03;5062243;28;20476;-74
2023/05/07 09:09:32;;;;;;;4.65;2.40;;;;;;;22.12;55.60;100293.88;5081704;28;20407;-74
2023/05/07 09:12:00;;;;;;;2.75;2.50;;;;;;;22.46;54.46;100296.59;5081611;28;20492;-77
2023/05/07 09:14:25;;;;;;;7.00;2.22;;;;;;;22.76;53.63;100300.28;5080020;28;20388;-75
2023/05/07 09:16:53;;;;;;;4.57;2.83;;;;;;;23.04;53.44;100292.38;5089798;28;20725;-74
2023/05/07 09:19:26;;;;;;;2.92;2.80;;;;;;;23.18;52.60;100288.25;5069113;28;20417;-73
2023/05/07 09:22:04;;;;;;;3.10;2.90;;;;;;;23.09;53.34;100298.53;5074956;28;20396;-74
2023/05/07 09:24:34;;;;;;;2.75;2.58;;;;;;;23.16;52.90;100287.78;5071687;28;20396;-75
2023/05/07 09:27:01;;;;;;;4.05;3.65;;;;;;;23.90;51.01;100286.38;5089449;28;20393;-74
2023/05/07 09:29:28;;;;;;;1400.80;999.90;;;;;;;24.75;48.67;100296.66;5076627;28;20390;-74
2023/05/07 09:31:54;;;;;;;1999.90;999.90;;;;;;;25.09;48.08;100291.88;5085736;28;20428;-74
2023/05/07 09:34:19;;;;;;;1999.90;999.90;;;;;;;24.90;48.10;100295.19;5058696;28;20478;-74
2023/05/07 09:36:44;;;;;;;1999.90;999.90;;;;;;;24.64;48.73;100286.34;5075378;28;20997;-74
2023/05/07 09:39:10;;;;;;;1999.90;999.90;;;;;;;24.70;48.51;100287.72;5067257;28;20408;-74
2023/05/07 09:41:44;;;;;;;1999.90;999.90;;;;;;;25.06;47.42;100281.47;5078105;28;20399;-74
2023/05/07 09:44:09;;;;;;;1999.90;999.90;;;;;;;25.44;45.56;100283.88;5067017;28;20390;-74
2023/05/07 09:46:36;;;;;;;1999.90;999.90;;;;;;;25.65;46.73;100281.81;5087918;28;20444;-74
2023/05/07 09:49:02;;;;;;;1999.90;999.90;;;;;;;26.06;45.52;100278.69;5082682;28;20436;-74
2023/05/07 09:51:38;;;;;;;1999.90;999.90;;;;;;;26.53;44.17;100276.09;5085234;28;20956;-74
2023/05/07 09:54:04;;;;;;;1533.90;209.63;;;;;;;27.01;43.60;100274.97;5067526;28;20947;-74
2023/05/07 09:56:31;;;;;;;408.50;373.95;;;;;;;27.27;42.55;100272.44;5082492;28;20489;-74
2023/05/07 09:59:02;;;;;;;1.80;1.70;;;;;;;27.51;41.33;100273.41;5065863;28;20744;-75
2023/05/07 10:01:30;;;;;;;2.58;1.35;;;;;;;28.00;39.58;100274.50;5076985;28;20391;-75
2023/05/07 10:03:57;;;;;;;1.40;1.40;;;;;;;29.05;37.37;100274.16;5076489;28;20430;-74
2023/05/07 10:06:25;;;;;;;3.38;1.60;;;;;;;30.04;35.91;100267.28;5056514;28;20433;-74
2023/05/07 10:08:51;;;;;;;2.65;1.27;;;;;;;30.64;35.39;100265.22;5080626;28;20402;-75
2023/05/07 10:11:17;;;;;;;2.60;1.38;;;;;;;30.77;34.62;100274.94;5074158;28;20408;-75
2023/05/07 10:13:43;;;;;;;1.97;1.17;;;;;;;30.81;34.18;100272.97;5081855;28;20413;-74
2023/05/07 10:16:08;;;;;;;2.92;1.95;;;;;;;31.13;33.56;100274.09;5076142;28;20917;-74
2023/05/07 10:18:34;;;;;;;1.30;1.30;;;;;;;31.76;31.68;100268.16;5074426;28;20412;-74
2023/05/07 10:21:06;;;;;;;1.37;1.37;;;;;;;32.04;31.21;100266.69;5071609;28;20422;-75
2023/05/07 10:23:33;;;;;;;1.48;1.30;;;;;;;32.28;30.63;100275.22;5058594;28;20419;-74
2023/05/07 10:26:01;;;;;;;1.83;1.00;;;;;;;32.03;30.77;100277.09;5090527;28;20491;-75
2023/05/07 10:28:31;;;;;;;3.50;1.50;;;;;;;31.68;31.28;100274.13;5081693;28;20453;-74
2023/05/07 10:31:15;;;;;;;2.60;1.02;;;;;;;31.87;31.18;100271.00;5069372;28;20426;-74
2023/05/07 10:33:43;;;;;;;2.53;1.48;;;;;;;32.18;31.38;100272.38;5072085;28;22245;-74
2023/05/07 10:36:09;;;;;;;4.72;1.50;;;;;;;32.51;30.81;100262.84;5076571;28;21285;-75
2023/05/07 10:38:34;;;;;;;1.30;1.30;;;;;;;32.55;30.93;100266.47;5067881;28;20490;-74
2023/05/07 10:40:59;;;;;;;1.53;1.43;;;;;;;32.72;30.79;100260.94;5072417;28;20414;-74
2023/05/07 10:43:25;;;;;;;1.60;1.50;;;;;;;33.25;30.28;100257.34;5060600;28;20485;-74
2023/05/07 10:46:16;;;;;;;3.17;1.73;;;;;;;34.17;29.03;100259.94;5073473;28;20411;-74
2023/05/07 10:49:00;;;;;;;2.78;1.77;;;;;;;34.43;28.58;100256.59;5072624;28;20395;-72
2023/05/07 10:51:26;;;;;;;1.67;1.40;;;;;;;33.97;29.75;100256.78;5056670;28;20420;-76
2023/05/07 10:54:09;;;;;;;1.92;1.30;;;;;;;34.71;28.73;100253.59;5071194;28;20383;-74
2023/05/07 10:56:35;;;;;;;2.10;1.52;;;;;;;34.90;28.34;100252.28;5088182;28;20728;-73
2023/05/07 10:59:31;;;;;;;2.63;1.47;;;;;;;34.31;28.13;100248.63;5078392;28;20455;-74
2023/05/07 11:01:58;;;;;;;2.00;1.80;;;;;;;34.64;27.72;100250.88;5077860;28;20413;-73
2023/05/07 11:04:26;;;;;;;1.50;1.47;;;;;;;34.41;28.07;100257.00;5083898;28;20752;-74
2023/05/07 11:07:06;;;;;;;3.63;1.88;;;;;;;34.19;29.04;100237.81;5061882;28;20891;-74
2023/05/07 11:10:05;;;;;;;1.60;1.50;;;;;;;33.77;28.74;100238.78;5071541;28;20766;-74
2023/05/07 11:12:36;;;;;;;1.80;1.60;;;;;;;33.05;30.16;100242.88;5038426;28;20493;-74
2023/05/07 11:15:08;;;;;;;1.38;1.10;;;;;;;33.02;30.51;100237.28;5074915;28;20482;-74
2023/05/07 11:17:34;;;;;;;2.25;1.40;;;;;;;33.15;30.36;100238.50;5083614;28;20740;-74
2023/05/07 11:20:04;;;;;;;3.17;1.70;;;;;;;33.04;30.05;100243.28;5083784;28;20403;-74